Stanhope, New Jersey
Current Conditions -  °F | °C
As of 9:35 PM on Wednesday 17 Dec 2014 (Local Time) from KMMU Reporting Station
NA  
Wind Chill: 36°   Ceiling: NA
Heat Index: 41°   Visibility: 10mi
Dew Point: 28°   Wind: 7mph
Humidity: 61%   Direction: 270°W
Pressure: 29.91"   Gusts: NA
Location:  40.9°N, 74.71°W
Report Text: KMMU 180235Z AUTO 27006KT 10SM 05/M02 A2991 RMK AO2
Loading
Personal Weather Stations






























Interactive Weather Map New forecast layout! Learn more

10-Day Weather Forecast

Advertisements
Track Severe Weather on mobile